createdAt,value
2022-11-12T00:06:57.139Z,76
2022-11-12T00:17:05.998Z,76
2022-11-12T00:27:14.002Z,76
2022-11-12T00:37:22.183Z,76
2022-11-12T00:47:30.324Z,76
2022-11-12T00:57:45.342Z,76
2022-11-12T01:07:45.084Z,76
2022-11-12T01:17:52.183Z,76
2022-11-12T01:28:04.024Z,76
2022-11-12T01:38:08.111Z,76
2022-11-12T01:48:11.861Z,76
2022-11-12T02:18:23.404Z,78
2022-11-12T02:28:30.951Z,78
2022-11-12T02:38:38.913Z,78
2022-11-12T02:48:46.974Z,78
2022-11-12T02:58:55.030Z,79
2022-11-12T03:09:03.155Z,79
2022-11-12T03:19:12.981Z,79
2022-11-12T03:29:21.074Z,78
2022-11-12T03:39:29.900Z,77
2022-11-12T03:59:35.213Z,76
2022-11-12T04:29:50.379Z,76
2022-11-12T04:39:59.910Z,75
2022-11-12T04:50:07.800Z,75
2022-11-12T05:00:15.951Z,75
2022-11-12T05:10:24.047Z,75
2022-11-12T05:20:32.166Z,76
2022-11-12T05:30:40.240Z,77
2022-11-12T05:40:48.371Z,77
2022-11-12T05:51:12.296Z,77
2022-11-12T06:01:02.708Z,76
2022-11-12T06:11:10.827Z,75
2022-11-12T06:21:18.762Z,75
2022-11-12T06:31:26.802Z,75
2022-11-12T06:41:43.811Z,75
2022-11-12T06:51:37.307Z,74
2022-11-12T07:01:45.484Z,74
2022-11-12T07:31:57.064Z,74
2022-11-12T07:42:05.147Z,71
2022-11-12T07:52:13.124Z,71
2022-11-12T08:02:21.187Z,70
2022-11-12T08:12:28.622Z,70
2022-11-12T08:22:36.675Z,69
2022-11-12T08:32:43.564Z,67
2022-11-12T08:42:51.440Z,65
2022-11-12T08:52:59.630Z,63
2022-11-12T09:03:07.604Z,63
2022-11-12T09:13:15.895Z,62
2022-11-12T09:23:23.960Z,62
2022-11-12T09:33:32.093Z,62
2022-11-12T09:43:40.204Z,63
2022-11-12T09:53:48.373Z,62
2022-11-12T10:03:56.622Z,62
2022-11-12T10:14:04.662Z,62
2022-11-12T10:24:12.694Z,61
2022-11-12T10:34:20.708Z,62
2022-11-12T10:44:28.761Z,61
2022-11-12T10:54:29.523Z,60
2022-11-12T11:04:37.657Z,58
2022-11-12T11:14:45.931Z,57
2022-11-12T11:24:53.901Z,58
2022-11-12T11:35:01.813Z,57
2022-11-12T11:45:09.803Z,56
2022-11-12T11:55:17.830Z,57
2022-11-12T12:05:27.474Z,57
2022-11-12T12:15:28.965Z,57
2022-11-12T12:25:38.323Z,56
2022-11-12T12:35:39.288Z,58
2022-11-12T12:45:47.380Z,58
2022-11-12T12:55:55.363Z,57
2022-11-12T13:06:06.079Z,56
2022-11-12T13:16:05.329Z,56
2022-11-12T13:26:13.260Z,55
2022-11-12T13:36:21.317Z,54
2022-11-12T13:46:29.448Z,54
2022-11-12T13:56:37.577Z,53
2022-11-12T14:06:45.743Z,52
2022-11-12T14:16:53.702Z,52
2022-11-12T14:27:01.684Z,53
2022-11-12T14:37:09.814Z,53
2022-11-12T14:47:17.747Z,52
2022-11-12T14:57:25.730Z,52
2022-11-12T15:07:33.741Z,57
2022-11-12T15:17:41.781Z,58
2022-11-12T15:27:49.787Z,61
2022-11-12T15:37:57.787Z,62
2022-11-12T15:48:05.620Z,66
2022-11-12T15:58:13.578Z,67
2022-11-12T16:08:21.515Z,67
2022-11-12T16:18:29.638Z,67
2022-11-12T16:28:38.981Z,68
2022-11-12T16:38:46.886Z,68
2022-11-12T16:48:54.848Z,71
2022-11-12T16:59:04.750Z,72
2022-11-12T17:09:05.898Z,74
2022-11-12T17:19:14.596Z,74
2022-11-12T17:29:22.738Z,74
2022-11-12T17:39:31.790Z,74
2022-11-12T17:49:40.091Z,73
2022-11-12T17:59:48.045Z,76
2022-11-12T18:09:56.131Z,77
2022-11-12T18:20:04.316Z,77
2022-11-12T18:30:15.080Z,77
2022-11-12T18:40:18.766Z,75
2022-11-12T18:50:28.098Z,75
2022-11-12T19:00:36.182Z,75
2022-11-12T19:10:44.242Z,75
2022-11-12T19:20:52.196Z,75
2022-11-12T19:31:00.143Z,76
2022-11-12T19:41:08.150Z,76
2022-11-12T19:51:15.142Z,76
2022-11-12T20:01:24.769Z,76
2022-11-12T20:11:33.916Z,76
2022-11-12T20:21:32.920Z,76
2022-11-12T20:31:40.977Z,77
2022-11-12T20:41:48.970Z,77
2022-11-12T20:51:57.053Z,77
2022-11-12T21:02:06.572Z,77
2022-11-12T21:12:14.763Z,76
2022-11-12T21:22:25.272Z,76
2022-11-12T21:32:23.480Z,76
2022-11-12T21:42:33.859Z,76
2022-11-12T21:52:31.931Z,76
2022-11-12T22:02:40.443Z,76
2022-11-12T22:13:05.266Z,76
2022-11-12T22:22:57.330Z,76
2022-11-12T22:33:05.304Z,76
2022-11-12T22:43:13.415Z,77
2022-11-12T22:53:21.392Z,77
2022-11-12T23:03:29.542Z,77
2022-11-12T23:13:37.695Z,77
2022-11-12T23:23:46.302Z,78
2022-11-12T23:33:56.714Z,78
2022-11-12T23:43:54.773Z,78
2022-11-12T23:54:02.881Z,79
